Tiempo atmosférico en la estación meteorológica de Blanes, Girona (60 m.)

Fecha
DESCASC
Temp. máxima en grados centígrados (hora)
DESCASC
Temp. mínima en grados centígrados (hora)
DESCASC
Temp. media en grados centígrados
DESCASC
Racha de viento máxima en m/sg (hora)
DESCASC
Velocidad máxima media en intervalos de 10 minutos(hora)
DESCASC
Precipitaciones diarias en mm
DESCASC
Precipitaciones de 00:00 a 06:00 en mm
DESCASC
Precipitaciones de 06:00 a 12:00 en mm
DESCASC
Precipitaciones de 12:00 a 18:00 en mm
DESCASC
Precipitaciones de 18:00 a 24:00 en mm
DESCASC
17-08-2017 32.5 (14:00) 22.8 (06:50) 27.6 5.83 (13:30) 3.33 (01:20) 0 0 0 0 0
16-08-2017 27.3 (11:20) 21.5 (06:40) 24.4 6.67 (16:40) 4.17 (06:50) 0 0 0 0 0
15-08-2017 31 (15:30) 21 (00:00) 26 6.11 (23:00) 3.89 (10:40) 0 0 0 0 0
14-08-2017 31.2 (15:10) 20.5 (06:40) 25.9 10.28 (13:50) 6.67 (13:50) 0 0 0 0 0
13-08-2017 31.3 (13:40) 20.1 (00:00) 25.7 8.89 (19:30) 5.28 (19:40) 0 0 0 0 0
12-08-2017 28.8 (15:00) 18.9 (00:00) 23.8 6.67 (20:20) 4.44 (07:10) 0 0 0 0 0
11-08-2017 29 (16:00) 17.6 (00:00) 23.3 7.78 (02:00) 5.56 (01:40) 0 0 0 0 0
10-08-2017 28.2 (16:40) 17 (00:00) 22.6 7.78 (01:00) 5 (01:00) 0 0 0 0 0
09-08-2017 26.4 (11:20) 18 (00:00) 22.2 11.94 (16:30) 7.78 (16:30) 0.8 0 0 0 0.8
08-08-2017 26.7 (18:30) 22.6 (00:00) 24.7 9.72 (14:30) 5.28 (08:30) 0.8 0 0.8 0 0
07-08-2017 32.8 (12:50) 23.6 (00:00) 28.2 12.5 (19:10) 8.61 (17:30) 0 0 0 0 0
06-08-2017 30.9 (17:00) 24.2 (00:00) 27.6 6.94 (15:00) 3.89 (20:00) 0 0 0 0 0
05-08-2017 34.9 (14:30) 25.9 (00:00) 30.4 5.28 (14:30) 3.33 (14:20) 0 0 0 0 0
04-08-2017 34.4 (14:20) 23.7 (00:00) 29.1 5.28 (00:20) 2.78 (07:30) 0 0 0 0 0
03-08-2017 29.7 (11:00) 24.6 (00:00) 27.2 10.56 (12:10) 7.22 (13:00) 0 0 0 0 0
02-08-2017 30.2 (15:00) 23.3 (00:00) 26.8 10.28 (12:30) 7.22 (12:40) 0 0 0 0 0
01-08-2017 30 (11:40) 22.6 (00:00) 26.3 10 (14:30) 5.83 (14:40) 0.4 0 0 0.4 0
31-07-2017 27.5 (13:30) 21.9 (00:00) 24.7 11.94 (14:30) 7.78 (15:50) 0 0 0 0 0
30-07-2017 27.5 (11:40) 22.7 (00:00) 25.1 10.28 (14:30) 6.11 (13:20) 0 0 0 0 0
29-07-2017 32.3 (13:30) 21.9 (00:00) 27.1 11.11 (20:40) 7.78 (20:10) 0 0 0 0 0
28-07-2017 32.7 (13:20) 22.8 (00:00) 27.8 5.28 (16:10) 3.33 (13:30) 0 0 0 0 0
27-07-2017 31 (15:30) 20.9 (00:00) 25.9 11.39 (17:30) 7.78 (17:30) 0 0 0 0 0
26-07-2017 29.3 (16:00) 19.9 (00:00) 24.6 11.67 (06:30) 6.11 (06:30) 0 0 0 0 0
25-07-2017 31.7 (15:00) 19.6 (00:00) 25.7 8.61 (05:30) 5.83 (05:40) 0 0 0 0 0
24-07-2017 28.5 (15:50) 19.9 (00:00) 24.2 8.89 (23:59) 5 (23:50) 0 0 0 0 0
23-07-2017 30.3 (11:50) 19.9 (00:00) 25.1 8.06 (02:20) 4.72 (01:50) 3.6 0 0 0.4 3.2
22-07-2017 31 (17:10) 21.6 (00:00) 26.3 9.17 (20:30) 6.39 (20:30) 0 0 0 0 0
21-07-2017 29.9 (11:10) 21.8 (00:00) 25.8 6.67 (21:20) 4.17 (21:20) 0 0 0 0 0
20-07-2017 26.9 (15:10) 22.4 (00:00) 24.6 14.17 (18:30) 9.17 (16:40) 0.4 0 0 0.4 0
19-07-2017 31.9 (11:40) 23.5 (00:00) 27.7 10.56 (12:30) 5 (13:10) 0 0 0 0 0

Gráficas

Temp. máximas Temp. mínimas Temp. medias Precipitaciones Rachas de viento máximas Velocidades máximas media en intervalos de 10 minutos

Datos horarios

Fecha y hora oficial Temperatura (ºC) Velocidad del viento (km/h) Dirección del viento Racha (km/h) Dirección de racha Precipitación (mm) Presión (hPa) Tendencia (hPa) Humedad (%)
2017-08-17 23:00:00 25 5 Oeste 12 Oeste 0 -- -- 81
2017-08-17 22:00:00 25.3 8 Sudoeste 15 Sudoeste 0 -- -- 83
2017-08-17 21:00:00 25.8 6 Sur 18 Sudoeste 0 -- -- 80
2017-08-17 20:00:00 27.4 6 Sur 11 Sudoeste 0 -- -- 74
2017-08-17 19:00:00 29.7 8 Sur 14 Sudoeste 0 -- -- 67
2017-08-17 18:00:00 31 8 Sur 15 Sudoeste 0 -- -- 62
2017-08-17 17:00:00 31.3 9 Sur 17 Sur 0 -- -- 64
2017-08-17 16:00:00 31.7 9 Sur 17 Sur 0 -- -- 61
2017-08-17 15:00:00 31.7 10 Sur 17 Sur 0 -- -- 59
2017-08-17 14:00:00 32.5 10 Sudeste 21 Sudeste 0 -- -- 54
2017-08-17 13:00:00 31.3 10 Sudeste 15 Sudeste 0 -- -- 55
2017-08-17 12:00:00 29.7 8 Sudeste 10 Sudeste 0 -- -- 57
2017-08-17 11:00:00 28.7 5 Sudeste 9 Sudeste 0 -- -- 59
2017-08-17 10:00:00 27.6 3 Sur 13 Sudoeste 0 -- -- 56
2017-08-17 09:00:00 25.7 4 Sudoeste 9 Oeste 0 -- -- 61
2017-08-17 08:00:00 23.8 3 Oeste 10 Oeste 0 -- -- 64
2017-08-17 07:00:00 22.9 7 Noroeste 11 Noroeste 0 -- -- 71
2017-08-17 06:00:00 23.3 5 Noroeste 12 Noroeste 0 -- -- 69
2017-08-17 05:00:00 23 6 Noroeste 9 Noroeste 0 -- -- 70
2017-08-17 04:00:00 23.5 5 Noroeste 7 Noroeste 0 -- -- 68
2017-08-17 03:00:00 23.9 3 Norte 9 Norte 0 -- -- 66
2017-08-17 02:00:00 24 6 Norte 15 Norte 0 -- -- 66
2017-08-17 01:00:00 23.7 8 Norte 12 Norte 0 -- -- 66
2017-08-17 00:00:00 23.2 0 Calma 9 Noroeste 0 -- -- 69
2017-08-16 23:00:00 23.5 6 Norte 10 Noroeste 0 -- -- 68
2017-08-16 22:00:00 23.1 2 Noroeste 7 Norte 0 -- -- 75
2017-08-16 21:00:00 23.6 2 Norte 11 Este 0 -- -- 77
2017-08-16 20:00:00 24.3 6 Este 17 Este 0 -- -- 75
2017-08-16 19:00:00 24.8 8 Este 17 Este 0 -- -- 70
2017-08-16 18:00:00 26 8 Este 19 Este 0 -- -- 68
2017-08-16 17:00:00 26.1 10 Este 24 Este 0 -- -- 68
2017-08-16 16:00:00 25.4 11 Este 23 Este 0 -- -- 75
2017-08-16 15:00:00 26.9 8 Este 21 Este 0 -- -- 70
2017-08-16 14:00:00 25.7 9 Este 21 Este 0 -- -- 74
2017-08-16 13:00:00 25.4 8 Este 17 Sudeste 0 -- -- 75
2017-08-16 12:00:00 26.9 9 Este 19 Sudeste 0 -- -- 70
2017-08-16 11:00:00 26.7 6 Sudeste 13 Este 0 -- -- 68
2017-08-16 10:00:00 25.6 5 Sur 9 Sudeste 0 -- -- 77
2017-08-16 09:00:00 23.6 5 Norte 15 Norte 0 -- -- 82
2017-08-16 08:00:00 22.2 8 Norte 18 Norte 0 -- -- 89
2017-08-16 07:00:00 21.5 15 Norte 21 Norte 0 -- -- 91
2017-08-16 06:00:00 21.7 8 Norte 17 Norte 0 -- -- 91
2017-08-16 05:00:00 21.9 10 Norte 16 Norte 0 -- -- 91
2017-08-16 04:00:00 22.3 5 Norte 18 Norte 0 -- -- 90
2017-08-16 03:00:00 22.7 10 Norte 16 Norte 0 -- -- 89
2017-08-16 02:00:00 23.5 5 Nordeste 16 Nordeste 0 -- -- 87
2017-08-16 01:00:00 23.6 13 Este 19 Este 0 -- -- 88
2017-08-16 00:00:00 23.9 8 Nordeste 18 Nordeste 0 -- -- 89
2017-08-15 23:00:00 24.2 13 Nordeste 22 Nordeste 0 -- -- 90
2017-08-15 22:00:00 24.5 2 Sur 10 Este 0 -- -- 88
2017-08-15 21:00:00 25 4 Sur 10 Este 0 -- -- 86
2017-08-15 20:00:00 25.8 5 Sur 11 Sur 0 -- -- 82
2017-08-15 19:00:00 26.7 5 Sur 18 Este 0 -- -- 78
2017-08-15 18:00:00 26.8 8 Este 17 Este 0 -- -- 77
2017-08-15 17:00:00 29.9 6 Sur 15 Sur 0 -- -- 64
2017-08-15 16:00:00 30.6 8 Sur 15 Sur 0 -- -- 63
2017-08-15 15:00:00 29.8 12 Sur 18 Sudeste 0 -- -- 62
2017-08-15 14:00:00 27.8 11 Sudeste 21 Este 0 -- -- 73
2017-08-15 13:00:00 27.6 8 Sudeste 19 Este 0 -- -- 74
2017-08-15 12:00:00 25.5 11 Este 20 Este 0 -- -- 81
2017-08-15 11:00:00 25.1 14 Este 20 Este 0 -- -- 80
2017-08-15 10:00:00 25.7 4 Este 9 Sur 0 -- -- 76
2017-08-15 09:00:00 23.7 8 Noroeste 12 Noroeste 0 -- -- 81
2017-08-15 08:00:00 22.4 9 Noroeste 13 Noroeste 0 -- -- 87
2017-08-15 07:00:00 21.4 7 Noroeste 9 Noroeste 0 -- -- 92
2017-08-15 06:00:00 21 0 Calma 6 Oeste 0 -- -- 92
2017-08-15 05:00:00 21.2 5 Oeste 7 Oeste 0 -- -- 91
2017-08-15 04:00:00 21.1 3 Nordeste 5 Nordeste 0 -- -- 90
2017-08-15 03:00:00 21.4 0 Calma 5 Sudoeste 0 -- -- 89
2017-08-15 02:00:00 21.9 0 Calma 6 Sudoeste 0 -- -- 87
2017-08-15 01:00:00 22.3 5 Sudoeste 10 Sudoeste 0 -- -- 89
2017-08-15 00:00:00 22.4 0 Calma 9 Sur 0 -- -- 88
2017-08-14 23:00:00 22.7 5 Sur 11 Sur 0 -- -- 85
2017-08-14 22:00:00 23.2 4 Sur 11 Sur 0 -- -- 81
2017-08-14 21:00:00 24 6 Sur 18 Sudoeste 0 -- -- 75
2017-08-14 20:00:00 25.6 9 Sur 19 Sur 0 -- -- 68
2017-08-14 19:00:00 27.6 10 Sur 20 Sur 0 -- -- 65
2017-08-14 18:00:00 29.2 11 Sur 22 Sur 0 -- -- 60
2017-08-14 17:00:00 30.1 11 Sur 24 Sur 0 -- -- 56
2017-08-14 16:00:00 31.1 9 Sur 24 Sur 0 -- -- 57
2017-08-14 15:00:00 31.1 11 Sur 27 Sudoeste 0 -- -- 58
2017-08-14 14:00:00 29.7 18 Sur 37 Sur 0 -- -- 63
2017-08-14 13:00:00 29.5 15 Sur 28 Sudoeste 0 -- -- 63
2017-08-14 12:00:00 28.6 13 Sur 32 Sudoeste 0 -- -- 66
2017-08-14 11:00:00 27.7 20 Sur 33 Sudoeste 0 -- -- 67
2017-08-14 10:00:00 25.8 5 Sur 12 Sudoeste 0 -- -- 63
2017-08-14 09:00:00 23.9 3 Sudoeste 6 Sur 0 -- -- 70
2017-08-14 08:00:00 21.9 2 Sudeste 5 Noroeste 0 -- -- 77
2017-08-14 07:00:00 20.5 4 Noroeste 6 Noroeste 0 -- -- 78
2017-08-14 06:00:00 20.9 6 Noroeste 10 Noroeste 0 -- -- 80
2017-08-14 05:00:00 21.1 4 Norte 6 Norte 0 -- -- 83
2017-08-14 04:00:00 21.7 2 Sudoeste 6 Oeste 0 -- -- 80
2017-08-14 03:00:00 22.5 2 Oeste 12 Oeste 0 -- -- 77
2017-08-14 02:00:00 23 5 Oeste 18 Noroeste 0 -- -- 79
2017-08-14 01:00:00 23.5 10 Noroeste 18 Oeste 0 -- -- 79
2017-08-14 00:00:00 23.6 5 Oeste 13 Sudoeste 0 -- -- 79
2017-08-13 23:00:00 23.9 6 Sudoeste 15 Sudoeste 0 -- -- 83
2017-08-13 22:00:00 24.2 6 Sudoeste 18 Sur 0 -- -- 81
2017-08-13 21:00:00 24.5 9 Sur 31 Sur 0 -- -- 77
2017-08-13 20:00:00 25.5 16 Sur 32 Sur 0 -- -- 71
2017-08-13 19:00:00 27.6 15 Sur 25 Sur 0 -- -- 64
2017-08-13 18:00:00 29.7 9 Sur 19 Sur 0 -- -- 53
2017-08-13 17:00:00 29.6 9 Sur 18 Sur 0 -- -- 57
2017-08-13 16:00:00 29.9 10 Sur 17 Sudoeste 0 -- -- 56
2017-08-13 15:00:00 30.2 10 Sur 19 Sur 0 -- -- 55
2017-08-13 14:00:00 31 13 Sur 23 Sudeste 0 -- -- 51
2017-08-13 13:00:00 30.8 14 Sur 21 Sudeste 0 -- -- 53
2017-08-13 12:00:00 28.1 10 Sudeste 17 Sudeste 0 -- -- 56
2017-08-13 11:00:00 26.6 6 Sudeste 14 Sudeste 0 -- -- 64
2017-08-13 10:00:00 24.7 5 Este 8 Nordeste 0 -- -- 62
2017-08-13 09:00:00 23.3 3 Sudeste 10 Norte 0 -- -- 66
2017-08-13 08:00:00 20.8 5 Norte 8 Noroeste 0 -- -- 76
2017-08-13 07:00:00 20.4 5 Norte 9 Norte 0 -- -- 74
2017-08-13 06:00:00 20.2 6 Norte 15 Noroeste 0 -- -- 73
2017-08-13 05:00:00 21.1 11 Noroeste 20 Noroeste 0 -- -- 69
2017-08-13 04:00:00 21.2 8 Noroeste 19 Noroeste 0 -- -- 67
2017-08-13 03:00:00 21.2 8 Noroeste 18 Noroeste 0 -- -- 69
2017-08-13 02:00:00 21.5 4 Noroeste 12 Noroeste 0 -- -- 74
2017-08-13 01:00:00 22.2 6 Noroeste 15 Oeste 0 -- -- 70
2017-08-13 00:00:00 22.3 6 Oeste 12 Sudoeste 0 -- -- 74
2017-08-12 23:00:00 22.5 4 Oeste 12 Sudoeste 0 -- -- 74
2017-08-12 22:00:00 22.7 6 Oeste 16 Sudoeste 0 -- -- 74
2017-08-12 21:00:00 23 5 Sudoeste 24 Sudoeste 0 -- -- 72
2017-08-12 20:00:00 24.1 14 Sur 24 Sudoeste 0 -- -- 67
2017-08-12 19:00:00 26 9 Sur 17 Sudoeste 0 -- -- 63
2017-08-12 18:00:00 27.6 9 Sur 18 Sur 0 -- -- 56
2017-08-12 17:00:00 27.8 10 Sur 21 Sur 0 -- -- 55
2017-08-12 16:00:00 28.7 10 Sur 19 Sur 0 -- -- 52
2017-08-12 15:00:00 28.8 9 Sur 17 Sur 0 -- -- 49
2017-08-12 14:00:00 28 11 Sur 21 Sudeste 0 -- -- 49
2017-08-12 13:00:00 27.8 10 Sudeste 15 Sudeste 0 -- -- 48
2017-08-12 12:00:00 26.2 8 Sur 13 Sudeste 0 -- -- 52
2017-08-12 11:00:00 24 7 Sur 12 Norte 0 -- -- 58
2017-08-12 10:00:00 21.4 5 Norte 19 Noroeste 0 -- -- 59
2017-08-12 09:00:00 20.3 11 Norte 23 Norte 0 -- -- 64
2017-08-12 08:00:00 18.9 14 Noroeste 22 Norte 0 -- -- 73
2017-08-12 07:00:00 19.1 15 Norte 22 Norte 0 -- -- 74
2017-08-12 06:00:00 19.1 5 Norte 21 Noroeste 0 -- -- 75
2017-08-12 05:00:00 19.2 13 Noroeste 19 Norte 0 -- -- 74
2017-08-12 04:00:00 19.6 13 Noroeste 18 Noroeste 0 -- -- 73
2017-08-12 03:00:00 20.2 9 Noroeste 14 Noroeste 0 -- -- 69
2017-08-12 02:00:00 20.1 8 Noroeste 12 Noroeste 0 -- -- 70
2017-08-12 01:00:00 20.8 5 Oeste 9 Oeste 0 -- -- 68
2017-08-12 00:00:00 21.5 3 Sudoeste 9 Sudeste 0 -- -- 64
2017-08-11 23:00:00 21.6 3 Sur 11 Sur 0 -- -- 63
2017-08-11 22:00:00 21.7 4 Sudeste 14 Este 0 -- -- 62
2017-08-11 21:00:00 22 6 Sudeste 19 Este 0 -- -- 60
2017-08-11 20:00:00 22.6 8 Sudeste 18 Sudeste 0 -- -- 59
2017-08-11 19:00:00 23.3 9 Sur 21 Sur 0 -- -- 59
2017-08-11 18:00:00 23.6 6 Sur 21 Sudeste 0 -- -- 57
2017-08-11 17:00:00 25.7 12 Sur 21 Sudeste 0 -- -- 52
2017-08-11 16:00:00 29 12 Sur 19 Sudeste 0 -- -- 45
2017-08-11 15:00:00 27.5 10 Sur 19 Sudeste 0 -- -- 49
2017-08-11 14:00:00 28 11 Sur 18 Sur 0 -- -- 47
2017-08-11 13:00:00 28 9 Sur 17 Sur 0 -- -- 46
2017-08-11 12:00:00 26.6 8 Sur 12 Sur 0 -- -- 49
2017-08-11 11:00:00 22.9 6 Sudoeste 14 Sudoeste 0 -- -- 51
2017-08-11 10:00:00 22.2 4 Oeste 21 Nordeste 0 -- -- 55
2017-08-11 09:00:00 20 9 Norte 22 Norte 0 -- -- 64
2017-08-11 08:00:00 18.4 16 Norte 25 Norte 0 -- -- 74
2017-08-11 07:00:00 18.3 15 Norte 22 Noroeste 0 -- -- 71
2017-08-11 06:00:00 18.2 15 Noroeste 21 Norte 0 -- -- 72
2017-08-11 05:00:00 17.6 13 Noroeste 18 Noroeste 0 -- -- 78
2017-08-11 04:00:00 18.2 12 Norte 17 Noroeste 0 -- -- 77
2017-08-11 03:00:00 18.4 14 Norte 24 Norte 0 -- -- 78
2017-08-11 02:00:00 18.4 19 Norte 28 Norte 0 -- -- 79
2017-08-11 01:00:00 18.8 19 Norte 24 Norte 0 -- -- 75
2017-08-11 00:00:00 20.2 8 Norte 15 Norte 0 -- -- 69
2017-08-10 23:00:00 21.8 5 Nordeste 20 Norte 0 -- -- 65
2017-08-10 22:00:00 22.1 3 Sur 14 Sudeste 0 -- -- 60
2017-08-10 21:00:00 22.8 8 Sur 16 Sudeste 0 -- -- 58
2017-08-10 20:00:00 24.9 8 Sur 14 Sur 0 -- -- 52
2017-08-10 19:00:00 25.6 7 Sur 16 Sudoeste 0 -- -- 50
2017-08-10 18:00:00 27.5 9 Sur 18 Sur 0 -- -- 45
2017-08-10 17:00:00 28 11 Sur 24 Sudeste 0 -- -- 45
2017-08-10 16:00:00 27.6 12 Sur 23 Sur 0 -- -- 51
2017-08-10 15:00:00 27.2 12 Sur 24 Sur 0 -- -- 53
2017-08-10 14:00:00 27.1 10 Sur 22 Sur 0 -- -- 54
2017-08-10 13:00:00 26.7 10 Sur 17 Sur 0 -- -- 55
2017-08-10 12:00:00 26.5 8 Sur 17 Sur 0 -- -- 53
2017-08-10 11:00:00 22.1 6 Sudeste 11 Noroeste 0 -- -- 62
2017-08-10 10:00:00 19.3 3 Sudoeste 21 Norte 0 -- -- 67
2017-08-10 09:00:00 17.3 12 Norte 25 Norte 0 -- -- 66
2017-08-10 08:00:00 17.2 14 Noroeste 22 Norte 0 -- -- 69
2017-08-10 07:00:00 17.1 13 Norte 18 Norte 0 -- -- 75
2017-08-10 06:00:00 17 12 Norte 21 Norte 0 -- -- 72
2017-08-10 05:00:00 17.1 3 Sur 14 Norte 0 -- -- 70
2017-08-10 04:00:00 17.4 10 Norte 19 Noroeste 0 -- -- 66
2017-08-10 03:00:00 18.1 10 Nordeste 24 Nordeste 0 -- -- 67
2017-08-10 02:00:00 17.8 9 Noroeste 20 Noroeste 0 -- -- 80
2017-08-10 01:00:00 17.7 18 Norte 28 Norte 0 -- -- 80
2017-08-10 00:00:00 18.1 7 Norte 21 Noroeste 0.2 -- -- 79
2017-08-09 23:00:00 18.1 14 Noroeste 31 Noroeste 0 -- -- 83
2017-08-09 22:00:00 18.1 9 Norte 34 Nordeste 0.6 -- -- 83
2017-08-09 21:00:00 21.4 9 Nordeste 27 Nordeste 0 -- -- 51
2017-08-09 20:00:00 22.8 13 Nordeste 31 Este 0 -- -- 47
2017-08-09 19:00:00 23.8 16 Nordeste 33 Este 0 -- -- 45
2017-08-09 18:00:00 23.1 22 Este 37 Este 0 -- -- 62
2017-08-09 17:00:00 23.2 27 Este 43 Este 0 -- -- 60
2017-08-09 16:00:00 22.8 26 Este 40 Este 0 -- -- 62
2017-08-09 15:00:00 23.6 26 Este 39 Este 0 -- -- 58
2017-08-09 14:00:00 23.5 26 Este 39 Este 0 -- -- 59
2017-08-09 13:00:00 24.2 17 Este 31 Este 0 -- -- 57
2017-08-09 12:00:00 26 8 Este 16 Este 0 -- -- 51
2017-08-09 11:00:00 25.9 7 Sur 11 Sur 0 -- -- 50
2017-08-09 10:00:00 23.4 5 Sudeste 19 Norte 0 -- -- 52
2017-08-09 09:00:00 20.8 7 Noroeste 26 Norte 0 -- -- 56
2017-08-09 08:00:00 18.9 19 Norte 28 Norte 0 -- -- 63
2017-08-09 07:00:00 18.4 14 Noroeste 24 Norte 0 -- -- 65
2017-08-09 06:00:00 19.1 15 Norte 22 Norte 0 -- -- 61
2017-08-09 05:00:00 19.9 13 Norte 19 Norte 0 -- -- 58
2017-08-09 04:00:00 20.4 4 Norte 31 Norte 0 -- -- 55
2017-08-09 03:00:00 20.8 14 Norte 22 Norte 0 -- -- 52
2017-08-09 02:00:00 21.2 13 Norte 26 Norte 0 -- -- 49
2017-08-09 01:00:00 21.9 12 Noroeste 24 Norte 0 -- -- 46
2017-08-09 00:00:00 22.6 14 Norte 33 Norte 0 -- -- 44
2017-08-08 23:00:00 22.8 14 Norte 34 Norte 0 -- -- 44
2017-08-08 22:00:00 23.1 12 Norte 34 Nordeste 0 -- -- 43
2017-08-08 21:00:00 23.6 15 Norte 31 Nordeste 0 -- -- 44
2017-08-08 20:00:00 24.9 11 Nordeste 25 Nordeste 0 -- -- 44
2017-08-08 19:00:00 26.5 11 Nordeste 28 Nordeste 0 -- -- 39
2017-08-08 18:00:00 26.4 9 Nordeste 21 Este 0 -- -- 47
2017-08-08 17:00:00 25.8 10 Norte 26 Norte 0 -- -- 49
2017-08-08 16:00:00 24.3 14 Norte 35 Norte 0 -- -- 58
2017-08-08 15:00:00 23.8 17 Norte 35 Noroeste 0 -- -- 58
2017-08-08 14:00:00 24.4 14 Norte 29 Norte 0 -- -- 54
2017-08-08 13:00:00 23.8 13 Norte 30 Norte 0 -- -- 60
2017-08-08 12:00:00 24.2 7 Norte 20 Norte 0 -- -- 74
2017-08-08 11:00:00 24.1 6 Norte 21 Norte 0 -- -- 84
2017-08-08 10:00:00 23.7 8 Nordeste 20 Este 0.4 -- -- 89
2017-08-08 09:00:00 24 13 Este 33 Este 0.4 -- -- 91
2017-08-08 08:00:00 25.8 8 Este 14 Este 0 -- -- 90
2017-08-08 07:00:00 25.3 5 Nordeste 8 Nordeste 0 -- -- 93
2017-08-08 06:00:00 25.3 3 Sur 10 Sur 0 -- -- 93
2017-08-08 05:00:00 25.6 5 Sur 13 Sudoeste 0 -- -- 91
2017-08-08 04:00:00 25.7 5 Sur 11 Sudoeste 0 -- -- 91
2017-08-08 03:00:00 25.9 10 Sudoeste 23 Sudoeste 0 -- -- 89
2017-08-08 02:00:00 25.8 10 Sudoeste 27 Sur 0 -- -- 86
2017-08-08 01:00:00 25.7 16 Sudoeste 29 Sudoeste 0 -- -- 87
2017-08-08 00:00:00 25.8 14 Sudoeste 31 Sur 0 -- -- 86
2017-08-07 23:00:00 25.7 17 Sudoeste 30 Sudoeste 0 -- -- 87
2017-08-07 22:00:00 25.6 21 Sudoeste 39 Sudoeste 0 -- -- 85
2017-08-07 21:00:00 25.9 24 Sudoeste 37 Sur 0 -- -- 82
2017-08-07 20:00:00 26.7 24 Sur 45 Sur 0 -- -- 77
2017-08-07 19:00:00 27.9 27 Sur 45 Sudoeste 0 -- -- 70
2017-08-07 18:00:00 28.9 30 Sur 45 Sur 0 -- -- 64
2017-08-07 17:00:00 30.8 19 Sur 34 Sur 0 -- -- 56
2017-08-07 16:00:00 31.1 16 Sur 30 Sudoeste 0 -- -- 59
2017-08-07 15:00:00 31.3 18 Sur 39 Sudoeste 0 -- -- 57
2017-08-07 14:00:00 31.6 13 Sur 27 Sudeste 0 -- -- 56
2017-08-07 13:00:00 32.8 14 Sur 24 Sur 0 -- -- 56
2017-08-07 12:00:00 31.6 10 Sur 21 Sur 0 -- -- 57
2017-08-07 11:00:00 30.3 11 Sur 18 Sudoeste 0 -- -- 60
2017-08-07 10:00:00 28.1 4 Sudeste 9 Sudeste 0 -- -- 67
2017-08-07 09:00:00 26.8 4 Sudeste 6 Sudeste 0 -- -- 67
2017-08-07 08:00:00 25 0 Calma 4 Norte 0 -- -- 74
2017-08-07 07:00:00 23.7 4 Noroeste 5 Norte 0 -- -- 76
2017-08-07 06:00:00 24.4 5 Oeste 14 Noroeste 0 -- -- 73
2017-08-07 05:00:00 24.1 11 Noroeste 17 Noroeste 0 -- -- 76
2017-08-07 04:00:00 24.1 10 Noroeste 15 Noroeste 0 -- -- 79
2017-08-07 03:00:00 24 10 Noroeste 17 Noroeste 0 -- -- 79
2017-08-07 02:00:00 24.6 10 Noroeste 15 Noroeste 0 -- -- 77
2017-08-07 01:00:00 25 6 Noroeste 13 Oeste 0 -- -- 76
2017-08-07 00:00:00 25.2 6 Oeste 12 Oeste 0 -- -- 75
2017-08-06 23:00:00 25.4 4 Sudoeste 12 Sudoeste 0 -- -- 74
2017-08-06 22:00:00 25.8 9 Sur 21 Sur 0 -- -- 73
2017-08-06 21:00:00 26.5 12 Sur 21 Sur 0 -- -- 68
2017-08-06 20:00:00 28.3 14 Sur 21 Sudoeste 0 -- -- 63
2017-08-06 19:00:00 30.2 6 Sur 16 Sudoeste 0 -- -- 56
2017-08-06 18:00:00 30.1 6 Sudeste 18 Este 0 -- -- 57
2017-08-06 17:00:00 30.9 8 Sur 18 Sudeste 0 -- -- 55
2017-08-06 16:00:00 30.1 6 Sudeste 22 Este 0 -- -- 54
2017-08-06 15:00:00 29.4 10 Este 25 Este 0 -- -- 58
2017-08-06 14:00:00 29.6 10 Este 22 Este 0 -- -- 62
2017-08-06 13:00:00 28.9 9 Este 22 Este 0 -- -- 64
2017-08-06 12:00:00 30.1 7 Sudeste 18 Sudeste 0 -- -- 62
2017-08-06 11:00:00 30.1 8 Este 18 Sudeste 0 -- -- 62
2017-08-06 10:00:00 29 8 Noroeste 16 Norte 0 -- -- 59
2017-08-06 09:00:00 26.7 8 Norte 21 Norte 0 -- -- 67
2017-08-06 08:00:00 24.8 10 Norte 19 Noroeste 0 -- -- 74
2017-08-06 07:00:00 24.3 5 Noroeste 17 Norte 0 -- -- 76
2017-08-06 06:00:00 24.2 12 Noroeste 21 Noroeste 0 -- -- 82
2017-08-06 05:00:00 25.3 8 Norte 14 Nordeste 0 -- -- 80
2017-08-06 04:00:00 26 12 Norte 18 Norte 0 -- -- 79
2017-08-06 03:00:00 25.9 3 Este 21 Noroeste 0 -- -- 82
2017-08-06 02:00:00 26.2 11 Noroeste 18 Noroeste 0 -- -- 82
2017-08-06 01:00:00 26.5 5 Noroeste 17 Noroeste 0 -- -- 79
2017-08-06 00:00:00 26.9 8 Norte 14 Norte 0 -- -- 72
2017-08-05 23:00:00 26.7 8 Norte 14 Norte 0 -- -- 82
2017-08-05 22:00:00 27.3 3 Oeste 6 Sur 0 -- -- 84
2017-08-05 21:00:00 28.1 2 Sudeste 12 Sudeste 0 -- -- 82
2017-08-05 20:00:00 29 3 Sudoeste 18 Sudeste 0 -- -- 79
2017-08-05 19:00:00 30.8 9 Sudeste 17 Sudeste 0 -- -- 72
2017-08-05 18:00:00 33.4 11 Sur 17 Sur 0 -- -- 63
2017-08-05 17:00:00 32.2 9 Sur 18 Sur 0 -- -- 67
2017-08-05 16:00:00 33.9 10 Sur 18 Sudeste 0 -- -- 58
2017-08-05 15:00:00 34.7 10 Sur 19 Sur 0 -- -- 55
2017-08-05 14:00:00 34.5 11 Sur 19 Sudeste 0 -- -- 55
2017-08-05 13:00:00 32.9 8 Sur 12 Sudeste 0 -- -- 63
2017-08-05 12:00:00 31.9 7 Sudeste 11 Sur 0 -- -- 64
2017-08-05 11:00:00 31.9 6 Sudeste 9 Sur 0 -- -- 58
2017-08-05 10:00:00 31.2 5 Sur 8 Sur 0 -- -- 52
2017-08-05 09:00:00 29.4 3 Sudoeste 5 Sudoeste 0 -- -- 58
2017-08-05 08:00:00 27.2 0 Calma 2 Noroeste 0 -- -- 63
2017-08-05 07:00:00 25.9 2 Norte 4 Norte 0 -- -- 66
2017-08-05 06:00:00 26.2 2 Norte 5 Norte 0 -- -- 63
2017-08-05 05:00:00 26.5 0 Calma 6 Norte 0 -- -- 62
2017-08-05 04:00:00 26.5 0 Calma 6 Noroeste 0 -- -- 63
2017-08-05 03:00:00 26.8 3 Noroeste 5 Sudoeste 0 -- -- 62
2017-08-05 02:00:00 27.8 4 Noroeste 17 Noroeste 0 -- -- 59
2017-08-05 01:00:00 27.7 8 Noroeste 13 Noroeste 0 -- -- 60
2017-08-05 00:00:00 27.2 3 Sudeste 8 Oeste 0 -- -- 66
2017-08-04 23:00:00 27.3 3 Sudoeste 6 Oeste 0 -- -- 71
2017-08-04 22:00:00 27.8 0 Calma 8 Oeste 0 -- -- 66
2017-08-04 21:00:00 28.3 4 Sudoeste 12 Sur 0 -- -- 67
2017-08-04 20:00:00 29.9 6 Sur 12 Sur 0 -- -- 64
2017-08-04 19:00:00 31.5 6 Sur 13 Sur 0 -- -- 58
2017-08-04 18:00:00 32.8 7 Sur 12 Sur 0 -- -- 56
2017-08-04 17:00:00 33.1 8 Sur 14 Sur 0 -- -- 57
2017-08-04 16:00:00 34.1 9 Sur 17 Sudoeste 0 -- -- 56
2017-08-04 15:00:00 33.7 8 Sur 17 Sur 0 -- -- 59
2017-08-04 14:00:00 33.8 9 Sur 14 Sur 0 -- -- 59
2017-08-04 13:00:00 32.4 8 Sur 13 Sur 0 -- -- 62
2017-08-04 12:00:00 32.6 7 Sur 13 Sur 0 -- -- 61
2017-08-04 11:00:00 31.4 7 Sur 13 Sudoeste 0 -- -- 59
2017-08-04 10:00:00 29.4 5 Oeste 14 Noroeste 0 -- -- 60
2017-08-04 09:00:00 26.9 7 Noroeste 14 Noroeste 0 -- -- 70
2017-08-04 08:00:00 25.2 10 Noroeste 15 Noroeste 0 -- -- 83
2017-08-04 07:00:00 23.9 8 Noroeste 12 Noroeste 0 -- -- 93
2017-08-04 06:00:00 23.9 2 Noroeste 5 Noroeste 0 -- -- 94
2017-08-04 05:00:00 24.2 2 Norte 5 Nordeste 0 -- -- 92
2017-08-04 04:00:00 24.6 3 Nordeste 9 Nordeste 0 -- -- 91
2017-08-04 03:00:00 25 5 Nordeste 8 Este 0 -- -- 91
2017-08-04 02:00:00 25.7 2 Este 12 Este 0 -- -- 89
2017-08-04 01:00:00 27.1 3 Sudeste 19 Sudeste 0 -- -- 83
2017-08-04 00:00:00 29.6 14 Norte 22 Norte 0 -- -- 56
2017-08-03 23:00:00 27.2 7 Norte 14 Norte 0 -- -- 68
2017-08-03 22:00:00 26.1 3 Oeste 10 Este 0 -- -- 86
2017-08-03 21:00:00 26.4 9 Nordeste 18 Nordeste 0 -- -- 87
2017-08-03 20:00:00 27 11 Nordeste 17 Este 0 -- -- 84
2017-08-03 19:00:00 28.3 8 Este 15 Este 0 -- -- 80
2017-08-03 18:00:00 28.4 7 Este 13 Este 0 -- -- 78
2017-08-03 17:00:00 27.5 6 Nordeste 19 Este 0 -- -- 79
2017-08-03 16:00:00 27.6 9 Este 23 Este 0 -- -- 79
2017-08-03 15:00:00 27.6 11 Sudeste 31 Este 0 -- -- 78
2017-08-03 14:00:00 26.9 16 Este 36 Este 0 -- -- 83
2017-08-03 13:00:00 26.2 26 Este 38 Este 0 -- -- 85
2017-08-03 12:00:00 26.5 22 Este 36 Este 0 -- -- 85
2017-08-03 11:00:00 29.7 5 Este 13 Este 0 -- -- 75
2017-08-03 10:00:00 29 4 Este 22 Nordeste 0 -- -- 73
2017-08-03 09:00:00 28.3 3 Este 18 Noroeste 0 -- -- 64
2017-08-03 08:00:00 25.8 4 Norte 26 Nordeste 0 -- -- 87
2017-08-03 07:00:00 27.1 8 Norte 24 Noroeste 0 -- -- 65
2017-08-03 06:00:00 26.6 18 Noroeste 26 Noroeste 0 -- -- 68
2017-08-03 05:00:00 25.8 14 Noroeste 19 Noroeste 0 -- -- 82
2017-08-03 04:00:00 24.7 0 Calma 4 Norte 0 -- -- 97
2017-08-03 03:00:00 24.8 3 Sudoeste 5 Sudoeste 0 -- -- 96
2017-08-03 02:00:00 24.9 0 Calma 6 Nordeste 0 -- -- 95
2017-08-03 01:00:00 25.1 2 Este 6 Nordeste 0 -- -- 94
2017-08-03 00:00:00 25.5 0 Calma 3 Oeste 0 -- -- 92
2017-08-02 23:00:00 25.9 0 Calma 9 Norte 0 -- -- 89
2017-08-02 22:00:00 26.4 5 Este 11 Este 0 -- -- 89
2017-08-02 21:00:00 27.6 7 Este 13 Este 0 -- -- 85
2017-08-02 20:00:00 29.2 5 Oeste 20 Sudeste 0 -- -- 70
2017-08-02 19:00:00 29.2 7 Sur 15 Sudoeste 0 -- -- 78
2017-08-02 18:00:00 28.8 3 Nordeste 8 Sur 0 -- -- 76
2017-08-02 17:00:00 28.8 4 Sur 11 Sudeste 0 -- -- 76
2017-08-02 16:00:00 29.4 6 Sudeste 12 Sudeste 0 -- -- 74
2017-08-02 15:00:00 30.2 7 Sudeste 22 Este 0 -- -- 72
2017-08-02 14:00:00 26.4 17 Este 33 Este 0 -- -- 85
2017-08-02 13:00:00 26 25 Este 37 Este 0 -- -- 84
2017-08-02 12:00:00 26.7 19 Este 32 Este 0 -- -- 81
2017-08-02 11:00:00 29.8 6 Sudeste 13 Este 0 -- -- 67
2017-08-02 10:00:00 28.8 5 Sur 9 Sur 0 -- -- 64
2017-08-02 09:00:00 26.7 8 Norte 23 Norte 0 -- -- 66
2017-08-02 08:00:00 25.1 14 Norte 21 Norte 0 -- -- 73
2017-08-02 07:00:00 23.4 8 Norte 14 Norte 0 -- -- 80
2017-08-02 06:00:00 23.5 4 Noroeste 12 Noroeste 0 -- -- 83
2017-08-02 05:00:00 23.7 9 Noroeste 13 Noroeste 0 -- -- 84
2017-08-02 04:00:00 24.7 3 Norte 22 Norte 0 -- -- 80
2017-08-02 03:00:00 25.1 18 Norte 28 Norte 0 -- -- 79
2017-08-02 02:00:00 24.9 17 Norte 23 Norte 0 -- -- 83
2017-08-02 01:00:00 24.9 18 Norte 31 Noroeste 0 -- -- 86
2017-08-02 00:00:00 25.4 19 Norte 27 Norte 0 -- -- 84
2017-08-01 23:00:00 24.7 16 Noroeste 22 Noroeste 0 -- -- 91
2017-08-01 22:00:00 24.7 10 Norte 27 Este 0 -- -- 94
2017-08-01 21:00:00 25 19 Este 27 Este 0 -- -- 93
2017-08-01 20:00:00 25.2 10 Este 24 Este 0 -- -- 92
2017-08-01 19:00:00 25.2 8 Nordeste 26 Nordeste 0 -- -- 93
2017-08-01 18:00:00 25.3 9 Nordeste 24 Nordeste 0.4 -- -- 94
2017-08-01 17:00:00 25.8 2 Sur 21 Este 0 -- -- 87
2017-08-01 16:00:00 26.5 16 Este 32 Este 0 -- -- 84
2017-08-01 15:00:00 26.5 15 Este 36 Este 0 -- -- 84
2017-08-01 14:00:00 26.2 10 Nordeste 22 Este 0 -- -- 90
2017-08-01 13:00:00 27.7 8 Este 19 Este 0 -- -- 81
2017-08-01 12:00:00 29.3 9 Este 16 Este 0 -- -- 73
2017-08-01 11:00:00 27.9 9 Este 21 Norte 0 -- -- 78
2017-08-01 10:00:00 26.3 9 Norte 22 Noroeste 0 -- -- 79
2017-08-01 09:00:00 24.7 13 Norte 21 Norte 0 -- -- 87
2017-08-01 08:00:00 23.3 15 Norte 27 Norte 0 -- -- 92
2017-08-01 07:00:00 22.6 19 Norte 24 Norte 0 -- -- 94
2017-08-01 06:00:00 22.7 17 Norte 25 Norte 0 -- -- 94
2017-08-01 05:00:00 23.5 6 Nordeste 14 Nordeste 0 -- -- 93
2017-08-01 04:00:00 23.3 7 Norte 24 Norte 0 -- -- 92
2017-08-01 03:00:00 23.8 12 Norte 21 Norte 0 -- -- 91
2017-08-01 02:00:00 24.2 14 Norte 18 Norte 0 -- -- 90
2017-08-01 01:00:00 24.8 8 Norte 13 Nordeste 0 -- -- 89
2017-08-01 00:00:00 25.2 8 Nordeste 15 Este 0 -- -- 89
2017-07-31 23:00:00 25.1 9 Nordeste 16 Este 0 -- -- 92
2017-07-31 22:00:00 25.2 12 Nordeste 21 Nordeste 0 -- -- 91
2017-07-31 21:00:00 25.3 13 Este 24 Este 0 -- -- 90
2017-07-31 20:00:00 25.7 14 Este 28 Este 0 -- -- 86
2017-07-31 19:00:00 26.4 15 Este 30 Este 0 -- -- 83
2017-07-31 18:00:00 26.7 19 Este 35 Este 0 -- -- 81
2017-07-31 17:00:00 26.8 21 Este 37 Este 0 -- -- 80
2017-07-31 16:00:00 26.6 28 Este 37 Este 0 -- -- 80
2017-07-31 15:00:00 27.2 22 Este 43 Este 0 -- -- 77
2017-07-31 14:00:00 27 25 Este 36 Este 0 -- -- 79
2017-07-31 13:00:00 27 22 Este 36 Este 0 -- -- 80
2017-07-31 12:00:00 26.9 15 Este 31 Este 0 -- -- 79
2017-07-31 11:00:00 26.1 20 Este 30 Este 0 -- -- 80
2017-07-31 10:00:00 26.4 12 Este 29 Norte 0 -- -- 76
2017-07-31 09:00:00 24 14 Norte 30 Norte 0 -- -- 84
2017-07-31 08:00:00 22.8 16 Norte 29 Norte 0 -- -- 87
2017-07-31 07:00:00 21.9 18 Norte 28 Norte 0 -- -- 92
2017-07-31 06:00:00 22 14 Norte 23 Norte 0 -- -- 91
2017-07-31 05:00:00 22.3 19 Norte 27 Norte 0 -- -- 91
2017-07-31 04:00:00 22.3 16 Norte 25 Noroeste 0 -- -- 89
2017-07-31 03:00:00 22.5 7 Norte 26 Norte 0 -- -- 87
2017-07-31 02:00:00 22.9 9 Norte 15 Norte 0 -- -- 85
2017-07-31 01:00:00 23.4 2 Este 10 Este 0 -- -- 84
2017-07-31 00:00:00 23.5 3 Norte 9 Noroeste 0 -- -- 83
2017-07-30 23:00:00 23.6 3 Nordeste 8 Noroeste 0 -- -- 82
2017-07-30 22:00:00 24.1 3 Nordeste 8 Nordeste 0 -- -- 91
2017-07-30 21:00:00 24.9 3 Nordeste 10 Este 0 -- -- 90
2017-07-30 20:00:00 26 5 Este 13 Este 0 -- -- 87
2017-07-30 19:00:00 27.5 7 Sur 17 Este 0 -- -- 81
2017-07-30 18:00:00 26.6 9 Este 24 Este 0 -- -- 84
2017-07-30 17:00:00 26.1 11 Este 26 Este 0 -- -- 85
2017-07-30 16:00:00 25.8 15 Este 30 Este 0 -- -- 84
2017-07-30 15:00:00 26.2 18 Este 37 Este 0 -- -- 85
2017-07-30 14:00:00 26.1 21 Este 34 Este 0 -- -- 84
2017-07-30 13:00:00 26.5 19 Este 27 Este 0 -- -- 83
2017-07-30 12:00:00 27.1 13 Este 21 Este 0 -- -- 83
2017-07-30 11:00:00 27 11 Este 21 Este 0 -- -- 82
2017-07-30 10:00:00 26.1 14 Este 21 Este 0 -- -- 84
2017-07-30 09:00:00 25.6 4 Este 8 Este 0 -- -- 81
2017-07-30 08:00:00 23.6 4 Norte 8 Noroeste 0 -- -- 84
2017-07-30 07:00:00 22.8 6 Norte 13 Noroeste 0 -- -- 88
2017-07-30 06:00:00 23.4 10 Noroeste 16 Noroeste 0 -- -- 86
2017-07-30 05:00:00 24 9 Oeste 16 Noroeste 0 -- -- 92
2017-07-30 04:00:00 24.1 4 Oeste 17 Sur 0 -- -- 93
2017-07-30 03:00:00 24.5 8 Sur 22 Sur 0 -- -- 94
2017-07-30 02:00:00 24.9 12 Sur 23 Sudoeste 0 -- -- 95
2017-07-30 01:00:00 25 13 Sur 25 Sur 0 -- -- 94
2017-07-30 00:00:00 25.2 9 Sudoeste 23 Sur 0 -- -- 92
2017-07-29 23:00:00 25.4 8 Sudoeste 30 Sur 0 -- -- 91
2017-07-29 22:00:00 25.4 15 Sur 28 Sudoeste 0 -- -- 88
2017-07-29 21:00:00 25.6 16 Sur 40 Sudoeste 0 -- -- 85
2017-07-29 20:00:00 26.7 27 Sudoeste 37 Sudoeste 0 -- -- 84
2017-07-29 19:00:00 28.6 17 Sur 37 Sudoeste 0 -- -- 76
2017-07-29 18:00:00 30.5 12 Sur 24 Sur 0 -- -- 68
2017-07-29 17:00:00 31.2 12 Sur 21 Sudoeste 0 -- -- 61
2017-07-29 16:00:00 30.9 10 Sur 20 Sur 0 -- -- 60
2017-07-29 15:00:00 31.3 10 Sur 22 Sur 0 -- -- 60
2017-07-29 14:00:00 31.3 10 Sur 19 Sur 0 -- -- 60
2017-07-29 13:00:00 31.2 9 Sur 15 Sudeste 0 -- -- 62
2017-07-29 12:00:00 30.4 8 Sur 12 Sur 0 -- -- 60
2017-07-29 11:00:00 29.2 6 Sur 9 Sur 0 -- -- 64
2017-07-29 10:00:00 27.7 4 Sur 8 Sudeste 0 -- -- 66
2017-07-29 09:00:00 26.3 3 Este 5 Sudeste 0 -- -- 73
2017-07-29 08:00:00 23.9 4 Norte 8 Norte 0 -- -- 81
2017-07-29 07:00:00 22.2 6 Norte 9 Norte 0 -- -- 85
2017-07-29 06:00:00 22.1 2 Norte 6 Norte 0 -- -- 88
2017-07-29 05:00:00 22.4 5 Noroeste 10 Norte 0 -- -- 87
2017-07-29 04:00:00 22.6 8 Noroeste 13 Noroeste 0 -- -- 86
2017-07-29 03:00:00 22.7 9 Noroeste 12 Noroeste 0 -- -- 85
2017-07-29 02:00:00 23 0 Calma 6 Norte 0 -- -- 84
2017-07-29 01:00:00 23.3 4 Noroeste 6 Noroeste 0 -- -- 81
2017-07-29 00:00:00 23.6 4 Norte 5 Noroeste 0 -- -- 80
2017-07-28 23:00:00 24 3 Nordeste 11 Este 0 -- -- 80
2017-07-28 22:00:00 24.3 6 Este 11 Este 0 -- -- 78
2017-07-28 21:00:00 25.3 4 Este 13 Este 0 -- -- 72
2017-07-28 20:00:00 27 6 Este 13 Sudeste 0 -- -- 66
2017-07-28 19:00:00 28.8 6 Sur 16 Sudeste 0 -- -- 60
2017-07-28 18:00:00 30 10 Sudeste 17 Sur 0 -- -- 56
2017-07-28 17:00:00 30.2 11 Sur 19 Sur 0 -- -- 58
2017-07-28 16:00:00 31.8 11 Sur 18 Sur 0 -- -- 55
2017-07-28 15:00:00 31.5 11 Sur 19 Sudeste 0 -- -- 58
2017-07-28 14:00:00 31.6 11 Sur 18 Sur 0 -- -- 56
2017-07-28 13:00:00 32 10 Sur 16 Sur 0 -- -- 55
2017-07-28 12:00:00 30.2 9 Sur 15 Sur 0 -- -- 66
2017-07-28 11:00:00 29.5 8 Sur 14 Sur 0 -- -- 70
2017-07-28 10:00:00 28.3 6 Sur 9 Sur 0 -- -- 76
2017-07-28 09:00:00 25.8 3 Sur 6 Este 0 -- -- 87
2017-07-28 08:00:00 23.6 2 Nordeste 6 Este 0 -- -- 93
2017-07-28 07:00:00 22.9 3 Noroeste 6 Noroeste 0 -- -- 96
2017-07-28 06:00:00 22.9 0 Calma 6 Noroeste 0 -- -- 95
2017-07-28 05:00:00 23.1 2 Noroeste 7 Noroeste 0 -- -- 95
2017-07-28 04:00:00 23.3 6 Norte 8 Norte 0 -- -- 95
2017-07-28 03:00:00 23.6 3 Norte 8 Norte 0 -- -- 94
2017-07-28 02:00:00 24.2 3 Oeste 6 Norte 0 -- -- 93
2017-07-28 01:00:00 24.5 4 Noroeste 6 Oeste 0 -- -- 92
2017-07-28 00:00:00 24.8 0 Calma 12 Sudoeste 0 -- -- 90
2017-07-27 23:00:00 25.1 7 Sudoeste 18 Sudoeste 0 -- -- 92
2017-07-27 22:00:00 25.1 8 Sur 18 Sudoeste 0 -- -- 90
2017-07-27 21:00:00 25.8 7 Sur 26 Sur 0 -- -- 89
2017-07-27 20:00:00 26.8 17 Sur 35 Sur 0 -- -- 82
2017-07-27 19:00:00 27.5 20 Sur 37 Sudoeste 0 -- -- 80
2017-07-27 18:00:00 28.6 21 Sur 41 Sur 0 -- -- 73
2017-07-27 17:00:00 29.9 21 Sur 34 Sur 0 -- -- 66
2017-07-27 16:00:00 30.4 19 Sur 31 Sur 0 -- -- 63
2017-07-27 15:00:00 30.5 15 Sur 32 Sur 0 -- -- 61
2017-07-27 14:00:00 30 17 Sur 32 Sur 0 -- -- 61
2017-07-27 13:00:00 30.5 13 Sur 21 Sur 0 -- -- 57
2017-07-27 12:00:00 29.9 9 Sur 15 Sur 0 -- -- 58
2017-07-27 11:00:00 28.4 8 Sur 12 Sur 0 -- -- 56
2017-07-27 10:00:00 25.9 5 Sur 8 Sur 0 -- -- 62
2017-07-27 09:00:00 24.2 4 Sudeste 8 Noroeste 0 -- -- 69
2017-07-27 08:00:00 21.8 7 Noroeste 17 Noroeste 0 -- -- 72
2017-07-27 07:00:00 20.9 5 Oeste 10 Noroeste 0 -- -- 77
2017-07-27 06:00:00 21.1 3 Oeste 12 Noroeste 0 -- -- 77
2017-07-27 05:00:00 21.4 6 Noroeste 12 Noroeste 0 -- -- 78
2017-07-27 04:00:00 21.5 5 Oeste 10 Oeste 0 -- -- 77
2017-07-27 03:00:00 22 5 Noroeste 12 Oeste 0 -- -- 75
2017-07-27 02:00:00 22.4 5 Noroeste 14 Oeste 0 -- -- 74
2017-07-27 01:00:00 22.5 6 Oeste 15 Oeste 0 -- -- 78
2017-07-27 00:00:00 22.7 4 Oeste 12 Oeste 0 -- -- 79
2017-07-26 23:00:00 22.9 6 Sudoeste 17 Sur 0 -- -- 80
2017-07-26 22:00:00 23 8 Sur 19 Sudoeste 0 -- -- 78
2017-07-26 21:00:00 23.4 10 Sudoeste 26 Sur 0 -- -- 74
2017-07-26 20:00:00 24.4 15 Sur 27 Sudoeste 0 -- -- 68
2017-07-26 19:00:00 26.2 12 Sur 24 Sur 0 -- -- 60
2017-07-26 18:00:00 28 9 Sur 17 Sudoeste 0 -- -- 54
2017-07-26 17:00:00 27.6 9 Sur 15 Sudeste 0 -- -- 54
2017-07-26 16:00:00 29.3 9 Sur 16 Sur 0 -- -- 50
2017-07-26 15:00:00 29 9 Sur 17 Sur 0 -- -- 50
2017-07-26 14:00:00 28.5 10 Sur 18 Sur 0 -- -- 52
2017-07-26 13:00:00 28.2 9 Sur 19 Sudeste 0 -- -- 51
2017-07-26 12:00:00 26 7 Sur 14 Sudeste 0 -- -- 57
2017-07-26 11:00:00 24.8 5 Sudeste 17 Noroeste 0 -- -- 56
2017-07-26 10:00:00 22.8 10 Noroeste 26 Norte 0 -- -- 56
2017-07-26 09:00:00 20.5 15 Norte 32 Norte 0 -- -- 60
2017-07-26 08:00:00 20 21 Norte 30 Norte 0 -- -- 61
2017-07-26 07:00:00 20 20 Norte 42 Norte 0 -- -- 61
2017-07-26 06:00:00 20.5 18 Norte 26 Norte 0 -- -- 62
2017-07-26 05:00:00 21.1 13 Norte 22 Norte 0 -- -- 69
2017-07-26 04:00:00 21.5 6 Norte 17 Nordeste 0 -- -- 79
2017-07-26 03:00:00 21.9 9 Este 17 Este 0 -- -- 78
2017-07-26 02:00:00 22 9 Noroeste 14 Noroeste 0 -- -- 75
2017-07-26 01:00:00 22.3 8 Noroeste 14 Noroeste 0 -- -- 73
2017-07-26 00:00:00 22.2 8 Noroeste 15 Noroeste 0 -- -- 75
2017-07-25 23:00:00 22.4 7 Noroeste 17 Noroeste 0 -- -- 76
2017-07-25 22:00:00 22.9 8 Noroeste 16 Oeste 0 -- -- 74
2017-07-25 21:00:00 23.3 5 Sudoeste 12 Sudoeste 0 -- -- 71
2017-07-25 20:00:00 24.8 8 Sudoeste 13 Sudoeste 0 -- -- 62
2017-07-25 19:00:00 25.2 7 Sur 14 Sudeste 0 -- -- 62
2017-07-25 18:00:00 25.7 7 Sur 15 Sur 0 -- -- 60
2017-07-25 17:00:00 27.9 9 Sur 18 Sur 0 -- -- 53
2017-07-25 16:00:00 27.6 8 Sur 19 Sur 0 -- -- 56
2017-07-25 15:00:00 31.7 11 Sur 24 Sur 0 -- -- 46
2017-07-25 14:00:00 31 12 Sur 18 Sur 0 -- -- 46
2017-07-25 13:00:00 30.4 10 Sur 17 Sur 0 -- -- 47
2017-07-25 12:00:00 28.8 9 Sur 15 Sur 0 -- -- 52
2017-07-25 11:00:00 26.4 5 Sudoeste 11 Sur 0 -- -- 49
2017-07-25 10:00:00 24.2 4 Sudeste 23 Norte 0 -- -- 57
2017-07-25 09:00:00 21.2 15 Norte 28 Norte 0 -- -- 59
2017-07-25 08:00:00 20.1 16 Norte 28 Norte 0 -- -- 62
2017-07-25 07:00:00 19.9 16 Norte 30 Noroeste 0 -- -- 63
2017-07-25 06:00:00 20.4 15 Norte 31 Norte 0 -- -- 64
2017-07-25 05:00:00 21.1 17 Norte 24 Noroeste 0 -- -- 64
2017-07-25 04:00:00 21.6 14 Norte 22 Noroeste 0 -- -- 65
2017-07-25 03:00:00 22 15 Norte 21 Norte 0 -- -- 65
2017-07-25 02:00:00 22.1 7 Noroeste 9 Noroeste 0 -- -- 64
2017-07-25 01:00:00 22.9 7 Nordeste 24 Este 0 -- -- 62
2017-07-25 00:00:00 23.6 17 Este 32 Este 0 -- -- 62
2017-07-24 23:00:00 24 7 Este 19 Este 0 -- -- 81
2017-07-24 22:00:00 24 8 Este 17 Este 0 -- -- 82
2017-07-24 21:00:00 24.3 9 Este 21 Sudeste 0 -- -- 80
2017-07-24 20:00:00 25.5 8 Este 20 Este 0 -- -- 76
2017-07-24 19:00:00 27.6 4 Este 15 Sur 0 -- -- 68
2017-07-24 18:00:00 28.1 7 Sur 17 Sudeste 0 -- -- 66
2017-07-24 17:00:00 27.5 8 Sudeste 20 Sudeste 0 -- -- 67
2017-07-24 16:00:00 28.3 9 Sudeste 19 Sudeste 0 -- -- 64
2017-07-24 15:00:00 27.9 8 Este 18 Este 0 -- -- 65
2017-07-24 14:00:00 27.4 6 Sudeste 19 Este 0 -- -- 66
2017-07-24 13:00:00 26 8 Este 19 Sudeste 0 -- -- 73
2017-07-24 12:00:00 26 6 Sudeste 22 Este 0 -- -- 76
2017-07-24 11:00:00 25.6 11 Este 22 Nordeste 0 -- -- 77
2017-07-24 10:00:00 24.1 4 Este 7 Este 0 -- -- 83
2017-07-24 09:00:00 23.8 3 Este 8 Nordeste 0 -- -- 80
2017-07-24 08:00:00 21.3 0 Calma 9 Noroeste 0 -- -- 88
2017-07-24 07:00:00 20.2 3 Norte 5 Norte 0 -- -- 90
2017-07-24 06:00:00 20.2 2 Noroeste 8 Norte 0 -- -- 90
2017-07-24 05:00:00 20.2 3 Norte 12 Noroeste 0 -- -- 89
2017-07-24 04:00:00 20.5 4 Noroeste 12 Noroeste 0 -- -- 86
2017-07-24 03:00:00 20.7 8 Noroeste 20 Noroeste 0 -- -- 83
2017-07-24 02:00:00 20.1 15 Noroeste 25 Noroeste 0 -- -- 89
2017-07-24 01:00:00 20.3 14 Noroeste 22 Noroeste 0 -- -- 87
2017-07-24 00:00:00 19.9 13 Noroeste 22 Noroeste 0 -- -- 90
2017-07-23 23:00:00 20.3 13 Noroeste 23 Nordeste 0 -- -- 89
2017-07-23 22:00:00 21 10 Norte 28 Norte 0 -- -- 90
2017-07-23 21:00:00 21.7 7 Nordeste 13 Nordeste 0.6 -- -- 92
2017-07-23 20:00:00 22.9 10 Noroeste 24 Sudoeste 2.6 -- -- 81
2017-07-23 19:00:00 26.1 7 Sur 14 Sur 0 -- -- 69
2017-07-23 18:00:00 25.1 8 Sur 22 Este 0.4 -- -- 77
2017-07-23 17:00:00 26.5 8 Sudeste 19 Este 0 -- -- 64
2017-07-23 16:00:00 26.8 9 Este 20 Este 0 -- -- 63
2017-07-23 15:00:00 27.8 9 Este 24 Este 0 -- -- 61
2017-07-23 14:00:00 28.4 9 Este 22 Sudeste 0 -- -- 59
2017-07-23 13:00:00 29.2 9 Sudeste 18 Sudeste 0 -- -- 60
2017-07-23 12:00:00 30.1 6 Sudeste 15 Sur 0 -- -- 55
2017-07-23 11:00:00 28.7 7 Sudeste 15 Sudeste 0 -- -- 56
2017-07-23 10:00:00 28.8 9 Sur 14 Sur 0 -- -- 56
2017-07-23 09:00:00 25.9 8 Norte 18 Norte 0 -- -- 61
2017-07-23 08:00:00 24.2 13 Norte 20 Norte 0 -- -- 66
2017-07-23 07:00:00 23.5 14 Norte 22 Noroeste 0 -- -- 76
2017-07-23 06:00:00 23.6 6 Norte 15 Norte 0 -- -- 80
2017-07-23 05:00:00 23.6 7 Norte 13 Norte 0 -- -- 83
2017-07-23 04:00:00 23.7 5 Oeste 13 Este 0 -- -- 86
2017-07-23 03:00:00 24.2 9 Nordeste 29 Este 0 -- -- 84
2017-07-23 02:00:00 24.5 16 Este 29 Este 0 -- -- 85
2017-07-23 01:00:00 24.6 3 Norte 5 Oeste 0 -- -- 88
2017-07-23 00:00:00 25.1 4 Oeste 25 Sur 0 -- -- 87
2017-07-22 23:00:00 25.2 8 Sudoeste 21 Sur 0 -- -- 87
2017-07-22 22:00:00 25.2 11 Sudoeste 27 Sudoeste 0 -- -- 86
2017-07-22 21:00:00 25.7 12 Sudoeste 33 Sur 0 -- -- 83
2017-07-22 20:00:00 27 17 Sur 28 Sur 0 -- -- 78
2017-07-22 19:00:00 28 13 Sur 27 Sudoeste 0 -- -- 74
2017-07-22 18:00:00 29.2 11 Sur 22 Sur 0 -- -- 68
2017-07-22 17:00:00 30.9 11 Sur 24 Sudoeste 0 -- -- 61
2017-07-22 16:00:00 30.1 17 Sur 28 Sudoeste 0 -- -- 64
2017-07-22 15:00:00 30.5 12 Sur 21 Sur 0 -- -- 63
2017-07-22 14:00:00 30.5 9 Sur 18 Sur 0 -- -- 62
2017-07-22 13:00:00 29.4 11 Sudeste 16 Sudeste 0 -- -- 60
2017-07-22 12:00:00 28 7 Sudeste 19 Sudeste 0 -- -- 64
2017-07-22 11:00:00 28 4 Sur 14 Este 0 -- -- 65
2017-07-22 10:00:00 26.7 6 Este 16 Este 0 -- -- 67
2017-07-22 09:00:00 25.3 8 Este 14 Nordeste 0 -- -- 69
2017-07-22 08:00:00 23.2 5 Norte 16 Norte 0 -- -- 74
2017-07-22 07:00:00 21.7 7 Norte 11 Norte 0 -- -- 82
2017-07-22 06:00:00 21.9 9 Norte 13 Norte 0 -- -- 85
2017-07-22 05:00:00 22.1 6 Nordeste 16 Norte 0 -- -- 89
2017-07-22 04:00:00 22.1 10 Norte 14 Norte 0 -- -- 84
2017-07-22 03:00:00 22.3 9 Norte 15 Noroeste 0 -- -- 84
2017-07-22 02:00:00 22.2 4 Noroeste 6 Noroeste 0 -- -- 88
2017-07-22 01:00:00 22.8 4 Noroeste 10 Norte 0 -- -- 87
2017-07-22 00:00:00 23.5 5 Oeste 11 Sur 0 -- -- 86
2017-07-21 23:00:00 23.7 3 Sudoeste 22 Sudoeste 0 -- -- 84
2017-07-21 22:00:00 23.9 8 Sudoeste 24 Sudoeste 0 -- -- 83
2017-07-21 21:00:00 24.7 10 Sur 18 Sur 0 -- -- 76
2017-07-21 20:00:00 26.5 6 Sur 14 Sur 0 -- -- 69
2017-07-21 19:00:00 26.7 6 Sur 14 Sur 0 -- -- 68
2017-07-21 18:00:00 27.9 7 Sur 13 Sur 0 -- -- 63
2017-07-21 17:00:00 29 8 Sur 18 Sudeste 0 -- -- 59
2017-07-21 16:00:00 28.9 8 Sur 19 Sudeste 0 -- -- 58
2017-07-21 15:00:00 28 11 Este 23 Este 0 -- -- 60
2017-07-21 14:00:00 27.8 9 Este 18 Sudeste 0 -- -- 61
2017-07-21 13:00:00 27.3 8 Este 16 Este 0 -- -- 60
2017-07-21 12:00:00 28.7 5 Sudeste 12 Este 0 -- -- 58
2017-07-21 11:00:00 29.5 8 Sur 13 Sudeste 0 -- -- 60
2017-07-21 10:00:00 27 5 Sudeste 7 Sur 0 -- -- 60
2017-07-21 09:00:00 24.4 3 Este 10 Noroeste 0 -- -- 69
2017-07-21 08:00:00 23.3 2 Oeste 9 Noroeste 0 -- -- 74
2017-07-21 07:00:00 21.8 0 Calma 12 Noroeste 0 -- -- 75
2017-07-21 06:00:00 22.1 6 Norte 15 Noroeste 0 -- -- 70
2017-07-21 05:00:00 21.9 9 Noroeste 14 Noroeste 0 -- -- 71
2017-07-21 04:00:00 22.1 6 Noroeste 10 Noroeste 0 -- -- 72
2017-07-21 03:00:00 22.5 8 Noroeste 13 Norte 0 -- -- 70
2017-07-21 02:00:00 22.8 10 Noroeste 14 Norte 0 -- -- 69
2017-07-21 01:00:00 23 8 Norte 14 Norte 0 -- -- 69
2017-07-21 00:00:00 23.4 2 Norte 13 Nordeste 0 -- -- 70
2017-07-20 23:00:00 23.9 8 Nordeste 19 Nordeste 0 -- -- 65
2017-07-20 22:00:00 24.5 9 Nordeste 24 Nordeste 0 -- -- 61
2017-07-20 21:00:00 24.6 11 Nordeste 32 Este 0 -- -- 72
2017-07-20 20:00:00 24.9 25 Este 42 Este 0 -- -- 69
2017-07-20 19:00:00 25.1 30 Este 51 Nordeste 0 -- -- 71
2017-07-20 18:00:00 25.4 31 Este 43 Este 0 -- -- 70
2017-07-20 17:00:00 25.4 30 Este 44 Este 0 -- -- 72
2017-07-20 16:00:00 25.7 29 Este 39 Este 0 -- -- 69
2017-07-20 15:00:00 26.5 11 Este 30 Este 0 -- -- 69
2017-07-20 14:00:00 26.6 15 Este 30 Este 0 -- -- 71
2017-07-20 13:00:00 25.6 10 Nordeste 36 Este 0.4 -- -- 75
2017-07-20 12:00:00 25.5 10 Nordeste 28 Este 0 -- -- 68
2017-07-20 11:00:00 24.6 19 Nordeste 34 Este 0 -- -- 74
2017-07-20 10:00:00 24.6 13 Este 31 Este 0 -- -- 75
2017-07-20 09:00:00 24.2 15 Norte 32 Norte 0 -- -- 72
2017-07-20 08:00:00 23.1 12 Nordeste 34 Noroeste 0 -- -- 67
2017-07-20 07:00:00 22.4 20 Norte 33 Norte 0 -- -- 70
2017-07-20 06:00:00 23.2 7 Nordeste 26 Norte 0 -- -- 87
2017-07-20 05:00:00 23.8 12 Norte 22 Norte 0 -- -- 80
2017-07-20 04:00:00 23.6 16 Norte 22 Norte 0 -- -- 87
2017-07-20 03:00:00 23.9 13 Norte 15 Norte 0 -- -- 89
2017-07-20 02:00:00 23.9 2 Nordeste 4 Norte 0 -- -- 90
2017-07-20 01:00:00 24 2 Sudeste 9 Sudoeste 0 -- -- 90
2017-07-20 00:00:00 24.4 5 Sur 16 Sudeste 0 -- -- 89
2017-07-19 23:00:00 24.8 9 Sur 17 Sur 0 -- -- 88
2017-07-19 22:00:00 25 4 Este 16 Este 0 -- -- 87
2017-07-19 21:00:00 25.5 7 Este 15 Este 0 -- -- 83
2017-07-19 20:00:00 27.1 4 Sudoeste 17 Sudeste 0 -- -- 76
2017-07-19 19:00:00 29.3 11 Sur 18 Sudeste 0 -- -- 68
2017-07-19 18:00:00 30.4 10 Sur 15 Sur 0 -- -- 65
2017-07-19 17:00:00 31.2 9 Sur 18 Sur 0 -- -- 65
2017-07-19 16:00:00 31.6 10 Sur 21 Sudeste 0 -- -- 62
2017-07-19 15:00:00 31.4 13 Sur 26 Sudeste 0 -- -- 63
2017-07-19 14:00:00 30.8 15 Sudeste 30 Sudeste 0 -- -- 65
2017-07-19 13:00:00 30.9 16 Sur 38 Sur 0 -- -- 63
2017-07-19 12:00:00 31.8 14 Sur 25 Sur 0 -- -- 63
2017-07-19 11:00:00 29.8 12 Sur 21 Sudeste 0 -- -- 72
2017-07-19 10:00:00 28.6 9 Sur 15 Sudeste 0 -- -- 72
2017-07-19 09:00:00 26.8 8 Sur 18 Sudeste 0 -- -- 79
2017-07-19 08:00:00 24.4 6 Sudoeste 15 Sur 0 -- -- 87
2017-07-19 07:00:00 23.7 6 Sur 13 Sur 0 -- -- 93
2017-07-19 06:00:00 23.7 5 Sur 12 Sur 0 -- -- 93
2017-07-19 05:00:00 23.6 6 Sur 12 Sur 0 -- -- 90
2017-07-19 04:00:00 23.7 5 Sur 13 Oeste 0 -- -- 83
2017-07-19 03:00:00 24 5 Oeste 16 Sudoeste 0 -- -- 86
2017-07-19 02:00:00 24.4 7 Sudoeste 28 Sur 0 -- -- 86
2017-07-19 01:00:00 24.7 13 Sur 34 Sudoeste 0 -- -- 86
2017-07-19 00:00:00 24.8 14 Sur 31 Sudoeste 0 -- -- 85